Wind From: 13-12-2017 10:08 Until: 14-12-2017 06:00 warning for: Wind Level: Yellow info button

Although rather usual in this region, locally or potentially dangerous phenomena are expected. (such as local winds, summer thunderstorms, rising streams or high waves) Be aware and pay attention to the latest weather updates, especially if you carry out activities exposed to weather or close to a stream or shoreline. 


Meteo18 Weather Cam more information Meteo18 Weather Cam


Thunder radar more information blitzortung!


Rain radar more information rain snow radar


Visit our other weather sites:

Template documentation
and downloads

And another site



Weather Underground History page Text

Daily Summary for February 21, 2017 Units:  Both    English   Metric
« Previous Day
Next Day »
Daily Weekly Monthly Yearly Custom
  High: Low: Average:
Temperature: 52.2 °F /  11.2 °C 47.7 °F /  8.7 °C 49.8 °F /  9.9 °C
Dew Point: 49.8 °F /  9.9 °C 46.9 °F /  8.3 °C 48.4 °F /  9.1 °C
Humidity: 97 % 91 % 95 %
Wind Speed: 12 mph /  19.3 km/h - 5 mph /  8.1 km/h
Wind Gust: 17 mph /  27.4 km/h - -
Wind:- - WSW
Pressure: 30.3 in /  1025.3 hPa 30.2 in /  1023.2 hPa -
Precipitation: 0 in /  0.0 mm    
Historical Graphs
 
 
Tabular Data for February 21, 2017
Time Temperature Dew Point Pressure Wind Wind Speed Wind Gust Humidity Rainfall Rate (Hourly)
00:02 47.7 °F /  8.7 °C 46.9 °F /  8.3 °C 30.3 in /  1024.9 hPa SW 3 mph /  4.8 km/h 7 mph /  11.3 km/h 97 % 0 in /  0.0 mm
00:07 47.8 °F /  8.8 °C 46.9 °F /  8.3 °C 30.3 in /  1024.9 hPa SSW 4 mph /  6.4 km/h 12 mph /  19.3 km/h 97 % 0 in /  0.0 mm
00:12 47.8 °F /  8.8 °C 46.9 °F /  8.3 °C 30.3 in /  1025.3 hPa SW 5 mph /  8.0 km/h 12 mph /  19.3 km/h 97 % 0 in /  0.0 mm
00:17 47.8 °F /  8.8 °C 46.9 °F /  8.3 °C 30.3 in /  1024.9 hPa WSW 4 mph /  6.4 km/h 12 mph /  19.3 km/h 97 % 0 in /  0.0 mm
00:22 47.8 °F /  8.8 °C 46.9 °F /  8.3 °C 30.3 in /  1025.3 hPa SW 1 mph /  1.6 km/h 12 mph /  19.3 km/h 97 % 0 in /  0.0 mm
00:27 47.8 °F /  8.8 °C 46.9 °F /  8.3 °C 30.3 in /  1025.3 hPa SSW 5 mph /  8.0 km/h 12 mph /  19.3 km/h 97 % 0 in /  0.0 mm
00:32 48 °F /  8.9 °C 47.1 °F /  8.4 °C 30.3 in /  1024.9 hPa SSW 3 mph /  4.8 km/h 10 mph /  16.1 km/h 97 % 0 in /  0.0 mm
00:37 48 °F /  8.9 °C 47.1 °F /  8.4 °C 30.3 in /  1024.9 hPa SW 5 mph /  8.0 km/h 10 mph /  16.1 km/h 97 % 0 in /  0.0 mm
00:42 48 °F /  8.9 °C 47.1 °F /  8.4 °C 30.3 in /  1024.9 hPa SW 3 mph /  4.8 km/h 11 mph /  17.7 km/h 97 % 0 in /  0.0 mm
00:47 48 °F /  8.9 °C 47.1 °F /  8.4 °C 30.3 in /  1025.3 hPa SW 6 mph /  9.7 km/h 11 mph /  17.7 km/h 97 % 0 in /  0.0 mm
00:52 48 °F /  8.9 °C 47.1 °F /  8.4 °C 30.3 in /  1025.3 hPa SW 2 mph /  3.2 km/h 11 mph /  17.7 km/h 97 % 0 in /  0.0 mm
00:57 48.2 °F /  9.0 °C 47.3 °F /  8.5 °C 30.3 in /  1025.3 hPa WSW 5 mph /  8.0 km/h 10 mph /  16.1 km/h 97 % 0 in /  0.0 mm
01:02 48.2 °F /  9.0 °C 47.3 °F /  8.5 °C 30.3 in /  1024.9 hPa SSW 3 mph /  4.8 km/h 10 mph /  16.1 km/h 97 % 0 in /  0.0 mm
01:07 48.2 °F /  9.0 °C 47.3 °F /  8.5 °C 30.3 in /  1024.9 hPa SW 5 mph /  8.0 km/h 11 mph /  17.7 km/h 97 % 0 in /  0.0 mm
01:12 48.4 °F /  9.1 °C 47.5 °F /  8.6 °C 30.3 in /  1024.9 hPa SSW 4 mph /  6.4 km/h 11 mph /  17.7 km/h 97 % 0 in /  0.0 mm
01:17 48.4 °F /  9.1 °C 47.5 °F /  8.6 °C 30.3 in /  1024.9 hPa SSW 4 mph /  6.4 km/h 13 mph /  20.9 km/h 97 % 0 in /  0.0 mm
01:22 48.4 °F /  9.1 °C 47.5 °F /  8.6 °C 30.3 in /  1024.9 hPa SSW 4 mph /  6.4 km/h 13 mph /  20.9 km/h 97 % 0 in /  0.0 mm
01:32 48.4 °F /  9.1 °C 47.5 °F /  8.6 °C 30.3 in /  1024.9 hPa SW 9 mph /  14.5 km/h 13 mph /  20.9 km/h 97 % 0 in /  0.0 mm
01:37 48.4 °F /  9.1 °C 47.5 °F /  8.6 °C 30.3 in /  1024.9 hPa SW 3 mph /  4.8 km/h 12 mph /  19.3 km/h 97 % 0 in /  0.0 mm
01:42 48.6 °F /  9.2 °C 47.7 °F /  8.7 °C 30.3 in /  1024.9 hPa SW 3 mph /  4.8 km/h 12 mph /  19.3 km/h 97 % 0 in /  0.0 mm
01:47 48.6 °F /  9.2 °C 47.7 °F /  8.7 °C 30.3 in /  1024.9 hPa SW 10 mph /  16.1 km/h 12 mph /  19.3 km/h 97 % 0 in /  0.0 mm
01:52 48.6 °F /  9.2 °C 47.7 °F /  8.7 °C 30.3 in /  1024.9 hPa WSW 3 mph /  4.8 km/h 12 mph /  19.3 km/h 97 % 0 in /  0.0 mm
01:57 48.6 °F /  9.2 °C 47.7 °F /  8.7 °C 30.3 in /  1024.6 hPa SW 4 mph /  6.4 km/h 12 mph /  19.3 km/h 97 % 0 in /  0.0 mm
02:02 48.6 °F /  9.2 °C 47.7 °F /  8.7 °C 30.3 in /  1024.6 hPa SSW 4 mph /  6.4 km/h 12 mph /  19.3 km/h 97 % 0 in /  0.0 mm
02:07 48.6 °F /  9.2 °C 47.7 °F /  8.7 °C 30.3 in /  1024.6 hPa SW 8 mph /  12.9 km/h 14 mph /  22.5 km/h 97 % 0 in /  0.0 mm
02:12 48.6 °F /  9.2 °C 47.7 °F /  8.7 °C 30.3 in /  1024.6 hPa SW 2 mph /  3.2 km/h 14 mph /  22.5 km/h 97 % 0 in /  0.0 mm
02:17 48.6 °F /  9.2 °C 47.7 °F /  8.7 °C 30.3 in /  1024.6 hPa WSW 4 mph /  6.4 km/h 13 mph /  20.9 km/h 97 % 0 in /  0.0 mm
02:22 48.6 °F /  9.2 °C 47.7 °F /  8.7 °C 30.3 in /  1024.6 hPa SW 11 mph /  17.7 km/h 13 mph /  20.9 km/h 97 % 0 in /  0.0 mm
02:32 48.6 °F /  9.2 °C 47.7 °F /  8.7 °C 30.3 in /  1024.6 hPa SW 4 mph /  6.4 km/h 14 mph /  22.5 km/h 97 % 0 in /  0.0 mm
02:37 48.6 °F /  9.2 °C 47.7 °F /  8.7 °C 30.3 in /  1024.6 hPa SW 3 mph /  4.8 km/h 14 mph /  22.5 km/h 97 % 0 in /  0.0 mm
02:42 48.6 °F /  9.2 °C 47.7 °F /  8.7 °C 30.3 in /  1024.6 hPa West 7 mph /  11.3 km/h 13 mph /  20.9 km/h 97 % 0 in /  0.0 mm
02:47 48.6 °F /  9.2 °C 47.7 °F /  8.7 °C 30.3 in /  1024.6 hPa SW 7 mph /  11.3 km/h 15 mph /  24.1 km/h 97 % 0 in /  0.0 mm
02:52 48.6 °F /  9.2 °C 47.7 °F /  8.7 °C 30.3 in /  1024.6 hPa SW 4 mph /  6.4 km/h 15 mph /  24.1 km/h 97 % 0 in /  0.0 mm
02:57 48.6 °F /  9.2 °C 47.7 °F /  8.7 °C 30.3 in /  1024.3 hPa WSW 7 mph /  11.3 km/h 15 mph /  24.1 km/h 97 % 0 in /  0.0 mm
03:02 48.6 °F /  9.2 °C 47.7 °F /  8.7 °C 30.3 in /  1024.3 hPa WSW 7 mph /  11.3 km/h 15 mph /  24.1 km/h 97 % 0 in /  0.0 mm
03:07 48.6 °F /  9.2 °C 47.7 °F /  8.7 °C 30.3 in /  1024.3 hPa WSW 4 mph /  6.4 km/h 15 mph /  24.1 km/h 97 % 0 in /  0.0 mm
03:12 48.6 °F /  9.2 °C 47.7 °F /  8.7 °C 30.3 in /  1024.3 hPa SSW 5 mph /  8.0 km/h 15 mph /  24.1 km/h 97 % 0 in /  0.0 mm
03:17 48.6 °F /  9.2 °C 47.7 °F /  8.7 °C 30.3 in /  1024.3 hPa WSW 4 mph /  6.4 km/h 16 mph /  25.7 km/h 97 % 0 in /  0.0 mm
03:22 48.6 °F /  9.2 °C 47.7 °F /  8.7 °C 30.3 in /  1024.3 hPa West 4 mph /  6.4 km/h 16 mph /  25.7 km/h 97 % 0 in /  0.0 mm
03:32 48.6 °F /  9.2 °C 47.7 °F /  8.7 °C 30.3 in /  1024.3 hPa West 6 mph /  9.7 km/h 13 mph /  20.9 km/h 97 % 0 in /  0.0 mm
03:37 48.6 °F /  9.2 °C 47.7 °F /  8.7 °C 30.3 in /  1024.3 hPa WSW 5 mph /  8.0 km/h 14 mph /  22.5 km/h 97 % 0 in /  0.0 mm
03:42 48.6 °F /  9.2 °C 47.7 °F /  8.7 °C 30.3 in /  1024.3 hPa SW 4 mph /  6.4 km/h 14 mph /  22.5 km/h 97 % 0 in /  0.0 mm
03:47 48.6 °F /  9.2 °C 47.7 °F /  8.7 °C 30.2 in /  1023.9 hPa WSW 2 mph /  3.2 km/h 15 mph /  24.1 km/h 97 % 0 in /  0.0 mm
03:52 48.4 °F /  9.1 °C 47.5 °F /  8.6 °C 30.2 in /  1023.9 hPa West 6 mph /  9.7 km/h 15 mph /  24.1 km/h 97 % 0 in /  0.0 mm
03:57 48.4 °F /  9.1 °C 47.5 °F /  8.6 °C 30.2 in /  1023.9 hPa SSW 3 mph /  4.8 km/h 14 mph /  22.5 km/h 97 % 0 in /  0.0 mm
04:02 48.4 °F /  9.1 °C 47.5 °F /  8.6 °C 30.2 in /  1023.9 hPa West 9 mph /  14.5 km/h 14 mph /  22.5 km/h 97 % 0 in /  0.0 mm
04:07 48.4 °F /  9.1 °C 47.5 °F /  8.6 °C 30.2 in /  1023.9 hPa WSW 9 mph /  14.5 km/h 15 mph /  24.1 km/h 97 % 0 in /  0.0 mm
04:12 48.4 °F /  9.1 °C 47.5 °F /  8.6 °C 30.2 in /  1023.9 hPa WSW 9 mph /  14.5 km/h 15 mph /  24.1 km/h 97 % 0 in /  0.0 mm
04:17 48.4 °F /  9.1 °C 47.5 °F /  8.6 °C 30.2 in /  1023.9 hPa West 9 mph /  14.5 km/h 15 mph /  24.1 km/h 97 % 0 in /  0.0 mm
04:22 48.4 °F /  9.1 °C 47.5 °F /  8.6 °C 30.2 in /  1023.9 hPa WSW 6 mph /  9.7 km/h 15 mph /  24.1 km/h 97 % 0 in /  0.0 mm
04:32 48.4 °F /  9.1 °C 47.5 °F /  8.6 °C 30.2 in /  1023.9 hPa WSW 7 mph /  11.3 km/h 14 mph /  22.5 km/h 97 % 0 in /  0.0 mm
04:37 48.4 °F /  9.1 °C 47.5 °F /  8.6 °C 30.2 in /  1023.9 hPa West 5 mph /  8.0 km/h 12 mph /  19.3 km/h 97 % 0 in /  0.0 mm
04:42 48.4 °F /  9.1 °C 47.5 °F /  8.6 °C 30.2 in /  1023.9 hPa WSW 7 mph /  11.3 km/h 12 mph /  19.3 km/h 97 % 0 in /  0.0 mm
04:47 48.4 °F /  9.1 °C 47.5 °F /  8.6 °C 30.2 in /  1023.6 hPa West 8 mph /  12.9 km/h 11 mph /  17.7 km/h 97 % 0 in /  0.0 mm
04:52 48.4 °F /  9.1 °C 47.5 °F /  8.6 °C 30.2 in /  1023.6 hPa West 4 mph /  6.4 km/h 11 mph /  17.7 km/h 97 % 0 in /  0.0 mm
04:57 48.4 °F /  9.1 °C 47.5 °F /  8.6 °C 30.2 in /  1023.9 hPa West 6 mph /  9.7 km/h 11 mph /  17.7 km/h 97 % 0 in /  0.0 mm
05:02 48.4 °F /  9.1 °C 47.5 °F /  8.6 °C 30.2 in /  1023.9 hPa WSW 10 mph /  16.1 km/h 11 mph /  17.7 km/h 97 % 0 in /  0.0 mm
05:12 48.4 °F /  9.1 °C 47.5 °F /  8.6 °C 30.2 in /  1023.6 hPa SW 6 mph /  9.7 km/h 11 mph /  17.7 km/h 97 % 0 in /  0.0 mm
05:17 48.4 °F /  9.1 °C 47.5 °F /  8.6 °C 30.2 in /  1023.6 hPa SW 6 mph /  9.7 km/h 11 mph /  17.7 km/h 97 % 0 in /  0.0 mm
05:22 48.6 °F /  9.2 °C 47.7 °F /  8.7 °C 30.2 in /  1023.6 hPa WSW 6 mph /  9.7 km/h 11 mph /  17.7 km/h 97 % 0 in /  0.0 mm
05:32 48.6 °F /  9.2 °C 47.7 °F /  8.7 °C 30.2 in /  1023.6 hPa WSW 12 mph /  19.3 km/h 12 mph /  19.3 km/h 97 % 0 in /  0.0 mm
05:52 48.6 °F /  9.2 °C 47.7 °F /  8.7 °C 30.2 in /  1023.9 hPa WSW 9 mph /  14.5 km/h 12 mph /  19.3 km/h 97 % 0 in /  0.0 mm
06:02 48.6 °F /  9.2 °C 47.7 °F /  8.7 °C 30.2 in /  1023.9 hPa WSW 5 mph /  8.0 km/h 11 mph /  17.7 km/h 97 % 0 in /  0.0 mm
06:12 48.6 °F /  9.2 °C 47.7 °F /  8.7 °C 30.2 in /  1023.9 hPa WSW 7 mph /  11.3 km/h 13 mph /  20.9 km/h 97 % 0 in /  0.0 mm
06:17 48.6 °F /  9.2 °C 47.7 °F /  8.7 °C 30.2 in /  1023.9 hPa WNW 2 mph /  3.2 km/h 11 mph /  17.7 km/h 97 % 0 in /  0.0 mm
06:22 48.4 °F /  9.1 °C 47.5 °F /  8.6 °C 30.2 in /  1023.9 hPa West 7 mph /  11.3 km/h 11 mph /  17.7 km/h 97 % 0 in /  0.0 mm
06:32 48.4 °F /  9.1 °C 47.5 °F /  8.6 °C 30.2 in /  1023.6 hPa WSW 8 mph /  12.9 km/h 11 mph /  17.7 km/h 97 % 0 in /  0.0 mm
06:42 48.4 °F /  9.1 °C 47.5 °F /  8.6 °C 30.2 in /  1023.6 hPa SW 7 mph /  11.3 km/h 13 mph /  20.9 km/h 97 % 0 in /  0.0 mm
06:47 48.4 °F /  9.1 °C 47.5 °F /  8.6 °C 30.2 in /  1023.9 hPa WNW 5 mph /  8.0 km/h 13 mph /  20.9 km/h 97 % 0 in /  0.0 mm
06:52 48.4 °F /  9.1 °C 47.5 °F /  8.6 °C 30.2 in /  1023.9 hPa WSW 5 mph /  8.0 km/h 13 mph /  20.9 km/h 97 % 0 in /  0.0 mm
07:02 48.4 °F /  9.1 °C 47.5 °F /  8.6 °C 30.2 in /  1023.9 hPa WNW 6 mph /  9.7 km/h 12 mph /  19.3 km/h 97 % 0 in /  0.0 mm
07:12 48.6 °F /  9.2 °C 47.7 °F /  8.7 °C 30.2 in /  1023.9 hPa West 5 mph /  8.0 km/h 10 mph /  16.1 km/h 97 % 0 in /  0.0 mm
07:17 48.6 °F /  9.2 °C 47.7 °F /  8.7 °C 30.2 in /  1023.9 hPa WSW 7 mph /  11.3 km/h 11 mph /  17.7 km/h 97 % 0 in /  0.0 mm
07:22 48.6 °F /  9.2 °C 47.7 °F /  8.7 °C 30.2 in /  1023.9 hPa WSW 9 mph /  14.5 km/h 11 mph /  17.7 km/h 97 % 0 in /  0.0 mm
07:32 48.6 °F /  9.2 °C 47.7 °F /  8.7 °C 30.2 in /  1023.9 hPa West 6 mph /  9.7 km/h 11 mph /  17.7 km/h 97 % 0 in /  0.0 mm
07:42 48.7 °F /  9.3 °C 47.8 °F /  8.8 °C 30.3 in /  1024.3 hPa West 6 mph /  9.7 km/h 14 mph /  22.5 km/h 97 % 0 in /  0.0 mm
07:52 48.7 °F /  9.3 °C 47.8 °F /  8.8 °C 30.3 in /  1024.3 hPa WSW 9 mph /  14.5 km/h 14 mph /  22.5 km/h 97 % 0 in /  0.0 mm
07:57 48.7 °F /  9.3 °C 47.8 °F /  8.8 °C 30.3 in /  1024.3 hPa West 5 mph /  8.0 km/h 12 mph /  19.3 km/h 97 % 0 in /  0.0 mm
08:02 48.7 °F /  9.3 °C 47.8 °F /  8.8 °C 30.3 in /  1024.3 hPa West 5 mph /  8.0 km/h 12 mph /  19.3 km/h 97 % 0 in /  0.0 mm
08:12 48.7 °F /  9.3 °C 47.8 °F /  8.8 °C 30.3 in /  1024.3 hPa West 4 mph /  6.4 km/h 11 mph /  17.7 km/h 97 % 0 in /  0.0 mm
08:17 48.7 °F /  9.3 °C 47.8 °F /  8.8 °C 30.3 in /  1024.6 hPa WSW 6 mph /  9.7 km/h 11 mph /  17.7 km/h 97 % 0 in /  0.0 mm
08:22 48.7 °F /  9.3 °C 47.8 °F /  8.8 °C 30.3 in /  1024.6 hPa West 4 mph /  6.4 km/h 11 mph /  17.7 km/h 97 % 0 in /  0.0 mm
08:32 48.9 °F /  9.4 °C 48 °F /  8.9 °C 30.3 in /  1024.6 hPa West 5 mph /  8.0 km/h 10 mph /  16.1 km/h 97 % 0 in /  0.0 mm
08:42 48.9 °F /  9.4 °C 48 °F /  8.9 °C 30.3 in /  1024.6 hPa WSW 3 mph /  4.8 km/h 10 mph /  16.1 km/h 97 % 0 in /  0.0 mm
08:47 49.1 °F /  9.5 °C 48.2 °F /  9.0 °C 30.3 in /  1024.6 hPa WNW 3 mph /  4.8 km/h 10 mph /  16.1 km/h 97 % 0 in /  0.0 mm
08:52 49.3 °F /  9.6 °C 48.4 °F /  9.1 °C 30.3 in /  1024.6 hPa West 3 mph /  4.8 km/h 10 mph /  16.1 km/h 97 % 0 in /  0.0 mm
08:57 49.3 °F /  9.6 °C 48.4 °F /  9.1 °C 30.3 in /  1024.6 hPa West 5 mph /  8.0 km/h 9 mph /  14.5 km/h 97 % 0 in /  0.0 mm
09:02 49.5 °F /  9.7 °C 48.6 °F /  9.2 °C 30.3 in /  1024.6 hPa WSW 11 mph /  17.7 km/h 11 mph /  17.7 km/h 97 % 0 in /  0.0 mm
09:12 49.6 °F /  9.8 °C 48.6 °F /  9.2 °C 30.3 in /  1024.6 hPa West 7 mph /  11.3 km/h 11 mph /  17.7 km/h 96 % 0 in /  0.0 mm
09:17 49.8 °F /  9.9 °C 48.7 °F /  9.3 °C 30.3 in /  1024.6 hPa West 5 mph /  8.0 km/h 11 mph /  17.7 km/h 96 % 0 in /  0.0 mm
09:22 49.8 °F /  9.9 °C 48.7 °F /  9.3 °C 30.3 in /  1024.6 hPa WSW 5 mph /  8.0 km/h 11 mph /  17.7 km/h 96 % 0 in /  0.0 mm
09:32 50 °F /  10.0 °C 48.6 °F /  9.2 °C 30.3 in /  1024.6 hPa West 8 mph /  12.9 km/h 13 mph /  20.9 km/h 95 % 0 in /  0.0 mm
09:42 50 °F /  10.0 °C 48.6 °F /  9.2 °C 30.3 in /  1024.6 hPa West 7 mph /  11.3 km/h 13 mph /  20.9 km/h 95 % 0 in /  0.0 mm
09:52 49.8 °F /  9.9 °C 48.7 °F /  9.3 °C 30.3 in /  1024.6 hPa West 4 mph /  6.4 km/h 14 mph /  22.5 km/h 96 % 0 in /  0.0 mm
09:57 49.8 °F /  9.9 °C 48.7 °F /  9.3 °C 30.3 in /  1024.3 hPa WSW 8 mph /  12.9 km/h 14 mph /  22.5 km/h 96 % 0 in /  0.0 mm
10:07 50 °F /  10.0 °C 48.9 °F /  9.4 °C 30.3 in /  1024.3 hPa West 7 mph /  11.3 km/h 13 mph /  20.9 km/h 96 % 0 in /  0.0 mm
10:12 50.2 °F /  10.1 °C 49.1 °F /  9.5 °C 30.3 in /  1024.6 hPa WSW 6 mph /  9.7 km/h 13 mph /  20.9 km/h 96 % 0 in /  0.0 mm
10:17 50.2 °F /  10.1 °C 49.1 °F /  9.5 °C 30.3 in /  1024.6 hPa NW 3 mph /  4.8 km/h 14 mph /  22.5 km/h 96 % 0 in /  0.0 mm
10:22 50.2 °F /  10.1 °C 49.1 °F /  9.5 °C 30.3 in /  1024.6 hPa West 6 mph /  9.7 km/h 14 mph /  22.5 km/h 96 % 0 in /  0.0 mm
10:32 50.4 °F /  10.2 °C 49.3 °F /  9.6 °C 30.3 in /  1024.9 hPa West 4 mph /  6.4 km/h 14 mph /  22.5 km/h 96 % 0 in /  0.0 mm
10:37 50.4 °F /  10.2 °C 49.3 °F /  9.6 °C 30.3 in /  1024.6 hPa WNW 4 mph /  6.4 km/h 12 mph /  19.3 km/h 96 % 0 in /  0.0 mm
10:42 50.5 °F /  10.3 °C 49.5 °F /  9.7 °C 30.3 in /  1024.6 hPa WNW 7 mph /  11.3 km/h 12 mph /  19.3 km/h 96 % 0 in /  0.0 mm
10:47 50.5 °F /  10.3 °C 49.1 °F /  9.5 °C 30.3 in /  1024.6 hPa WNW 5 mph /  8.0 km/h 11 mph /  17.7 km/h 95 % 0 in /  0.0 mm
10:52 50.7 °F /  10.4 °C 49.3 °F /  9.6 °C 30.3 in /  1024.6 hPa WSW 3 mph /  4.8 km/h 11 mph /  17.7 km/h 95 % 0 in /  0.0 mm
11:02 50.9 °F /  10.5 °C 49.5 °F /  9.7 °C 30.3 in /  1024.6 hPa West 9 mph /  14.5 km/h 12 mph /  19.3 km/h 95 % 0 in /  0.0 mm
11:12 51.1 °F /  10.6 °C 49.5 °F /  9.7 °C 30.3 in /  1024.9 hPa West 5 mph /  8.0 km/h 14 mph /  22.5 km/h 94 % 0 in /  0.0 mm
11:17 51.1 °F /  10.6 °C 49.5 °F /  9.7 °C 30.3 in /  1024.9 hPa WSW 5 mph /  8.0 km/h 13 mph /  20.9 km/h 94 % 0 in /  0.0 mm
11:22 51.3 °F /  10.7 °C 49.6 °F /  9.8 °C 30.3 in /  1024.9 hPa West 8 mph /  12.9 km/h 13 mph /  20.9 km/h 94 % 0 in /  0.0 mm
11:27 51.3 °F /  10.7 °C 49.6 °F /  9.8 °C 30.3 in /  1024.9 hPa WNW 7 mph /  11.3 km/h 13 mph /  20.9 km/h 94 % 0 in /  0.0 mm
11:32 51.3 °F /  10.7 °C 49.6 °F /  9.8 °C 30.3 in /  1024.9 hPa West 6 mph /  9.7 km/h 13 mph /  20.9 km/h 94 % 0 in /  0.0 mm
11:37 51.1 °F /  10.6 °C 49.1 °F /  9.5 °C 30.3 in /  1024.9 hPa WNW 6 mph /  9.7 km/h 13 mph /  20.9 km/h 93 % 0 in /  0.0 mm
11:42 51.3 °F /  10.7 °C 49.3 °F /  9.6 °C 30.3 in /  1024.9 hPa WNW 10 mph /  16.1 km/h 13 mph /  20.9 km/h 93 % 0 in /  0.0 mm
11:47 51.3 °F /  10.7 °C 49.3 °F /  9.6 °C 30.3 in /  1024.9 hPa WNW 6 mph /  9.7 km/h 14 mph /  22.5 km/h 93 % 0 in /  0.0 mm
11:52 51.1 °F /  10.6 °C 49.5 °F /  9.7 °C 30.3 in /  1024.9 hPa WSW 2 mph /  3.2 km/h 14 mph /  22.5 km/h 94 % 0 in /  0.0 mm
11:57 51.1 °F /  10.6 °C 49.5 °F /  9.7 °C 30.3 in /  1024.9 hPa West 3 mph /  4.8 km/h 11 mph /  17.7 km/h 94 % 0 in /  0.0 mm
12:02 51.1 °F /  10.6 °C 49.5 °F /  9.7 °C 30.3 in /  1024.9 hPa WNW 5 mph /  8.0 km/h 11 mph /  17.7 km/h 94 % 0 in /  0.0 mm
12:12 51.3 °F /  10.7 °C 49.6 °F /  9.8 °C 30.3 in /  1024.9 hPa West 2 mph /  3.2 km/h 10 mph /  16.1 km/h 94 % 0 in /  0.0 mm
12:17 51.4 °F /  10.8 °C 49.5 °F /  9.7 °C 30.3 in /  1024.9 hPa WNW 3 mph /  4.8 km/h 8 mph /  12.9 km/h 93 % 0 in /  0.0 mm
12:22 51.4 °F /  10.8 °C 49.3 °F /  9.6 °C 30.3 in /  1024.9 hPa SW 2 mph /  3.2 km/h 7 mph /  11.3 km/h 92 % 0 in /  0.0 mm
12:27 51.6 °F /  10.9 °C 49.5 °F /  9.7 °C 30.3 in /  1024.9 hPa West 5 mph /  8.0 km/h 7 mph /  11.3 km/h 92 % 0 in /  0.0 mm
12:32 51.6 °F /  10.9 °C 49.5 °F /  9.7 °C 30.3 in /  1024.9 hPa WNW 5 mph /  8.0 km/h 12 mph /  19.3 km/h 92 % 0 in /  0.0 mm
12:37 51.6 °F /  10.9 °C 49.5 °F /  9.7 °C 30.3 in /  1024.9 hPa WSW 5 mph /  8.0 km/h 12 mph /  19.3 km/h 92 % 0 in /  0.0 mm
12:42 51.6 °F /  10.9 °C 49.5 °F /  9.7 °C 30.3 in /  1024.9 hPa West 2 mph /  3.2 km/h 9 mph /  14.5 km/h 92 % 0 in /  0.0 mm
12:52 51.4 °F /  10.8 °C 49.5 °F /  9.7 °C 30.3 in /  1024.9 hPa WNW 4 mph /  6.4 km/h 8 mph /  12.9 km/h 93 % 0 in /  0.0 mm
12:57 51.4 °F /  10.8 °C 49.5 °F /  9.7 °C 30.3 in /  1024.6 hPa WNW 2 mph /  3.2 km/h 15 mph /  24.1 km/h 93 % 0 in /  0.0 mm
13:02 51.4 °F /  10.8 °C 49.5 °F /  9.7 °C 30.3 in /  1024.6 hPa NW 5 mph /  8.0 km/h 15 mph /  24.1 km/h 93 % 0 in /  0.0 mm
13:07 51.6 °F /  10.9 °C 49.6 °F /  9.8 °C 30.3 in /  1024.6 hPa West 3 mph /  4.8 km/h 12 mph /  19.3 km/h 93 % 0 in /  0.0 mm
13:12 51.6 °F /  10.9 °C 49.6 °F /  9.8 °C 30.3 in /  1024.6 hPa West 4 mph /  6.4 km/h 12 mph /  19.3 km/h 93 % 0 in /  0.0 mm
13:22 51.6 °F /  10.9 °C 49.6 °F /  9.8 °C 30.3 in /  1024.6 hPa WNW 7 mph /  11.3 km/h 12 mph /  19.3 km/h 93 % 0 in /  0.0 mm
13:27 51.6 °F /  10.9 °C 49.5 °F /  9.7 °C 30.3 in /  1024.3 hPa WNW 3 mph /  4.8 km/h 12 mph /  19.3 km/h 92 % 0 in /  0.0 mm
13:32 51.6 °F /  10.9 °C 49.5 °F /  9.7 °C 30.3 in /  1024.3 hPa WSW 8 mph /  12.9 km/h 12 mph /  19.3 km/h 92 % 0 in /  0.0 mm
13:37 52 °F /  11.1 °C 49.6 °F /  9.8 °C 30.3 in /  1024.3 hPa WNW 6 mph /  9.7 km/h 12 mph /  19.3 km/h 92 % 0 in /  0.0 mm
13:42 52 °F /  11.1 °C 49.6 °F /  9.8 °C 30.3 in /  1024.3 hPa West 5 mph /  8.0 km/h 12 mph /  19.3 km/h 92 % 0 in /  0.0 mm
13:47 52 °F /  11.1 °C 49.6 °F /  9.8 °C 30.3 in /  1024.3 hPa WSW 7 mph /  11.3 km/h 13 mph /  20.9 km/h 92 % 0 in /  0.0 mm
13:52 52 °F /  11.1 °C 49.6 °F /  9.8 °C 30.3 in /  1024.3 hPa WSW 11 mph /  17.7 km/h 13 mph /  20.9 km/h 92 % 0 in /  0.0 mm
13:57 52 °F /  11.1 °C 49.6 °F /  9.8 °C 30.3 in /  1024.3 hPa West 8 mph /  12.9 km/h 15 mph /  24.1 km/h 92 % 0 in /  0.0 mm
14:02 52 °F /  11.1 °C 49.6 °F /  9.8 °C 30.3 in /  1024.3 hPa West 10 mph /  16.1 km/h 15 mph /  24.1 km/h 92 % 0 in /  0.0 mm
14:07 52 °F /  11.1 °C 49.6 °F /  9.8 °C 30.2 in /  1023.9 hPa NW 8 mph /  12.9 km/h 17 mph /  27.4 km/h 92 % 0 in /  0.0 mm
14:12 52 °F /  11.1 °C 49.6 °F /  9.8 °C 30.2 in /  1023.9 hPa WNW 7 mph /  11.3 km/h 17 mph /  27.4 km/h 92 % 0 in /  0.0 mm
14:17 52.2 °F /  11.2 °C 49.8 °F /  9.9 °C 30.2 in /  1023.9 hPa SW 7 mph /  11.3 km/h 17 mph /  27.4 km/h 92 % 0 in /  0.0 mm
14:22 52.2 °F /  11.2 °C 49.8 °F /  9.9 °C 30.2 in /  1023.9 hPa WSW 9 mph /  14.5 km/h 17 mph /  27.4 km/h 92 % 0 in /  0.0 mm
14:27 52.2 °F /  11.2 °C 49.8 °F /  9.9 °C 30.2 in /  1023.9 hPa WSW 9 mph /  14.5 km/h 15 mph /  24.1 km/h 92 % 0 in /  0.0 mm
14:32 52.2 °F /  11.2 °C 49.8 °F /  9.9 °C 30.2 in /  1023.9 hPa West 5 mph /  8.0 km/h 15 mph /  24.1 km/h 92 % 0 in /  0.0 mm
14:37 52.2 °F /  11.2 °C 49.8 °F /  9.9 °C 30.2 in /  1023.9 hPa West 6 mph /  9.7 km/h 13 mph /  20.9 km/h 92 % 0 in /  0.0 mm
14:42 52.2 °F /  11.2 °C 49.8 °F /  9.9 °C 30.2 in /  1023.9 hPa WSW 8 mph /  12.9 km/h 13 mph /  20.9 km/h 92 % 0 in /  0.0 mm
14:47 52.2 °F /  11.2 °C 49.6 °F /  9.8 °C 30.2 in /  1023.9 hPa West 5 mph /  8.0 km/h 14 mph /  22.5 km/h 91 % 0 in /  0.0 mm
14:52 52.2 °F /  11.2 °C 49.8 °F /  9.9 °C 30.2 in /  1023.9 hPa WSW 10 mph /  16.1 km/h 14 mph /  22.5 km/h 92 % 0 in /  0.0 mm
14:57 52.2 °F /  11.2 °C 49.6 °F /  9.8 °C 30.2 in /  1023.9 hPa WSW 8 mph /  12.9 km/h 12 mph /  19.3 km/h 91 % 0 in /  0.0 mm
15:02 52.2 °F /  11.2 °C 49.8 °F /  9.9 °C 30.2 in /  1023.9 hPa West 6 mph /  9.7 km/h 12 mph /  19.3 km/h 92 % 0 in /  0.0 mm
15:07 52 °F /  11.1 °C 49.6 °F /  9.8 °C 30.2 in /  1023.9 hPa WSW 10 mph /  16.1 km/h 13 mph /  20.9 km/h 92 % 0 in /  0.0 mm
15:12 52 °F /  11.1 °C 49.6 °F /  9.8 °C 30.2 in /  1023.9 hPa West 6 mph /  9.7 km/h 13 mph /  20.9 km/h 92 % 0 in /  0.0 mm
15:17 52 °F /  11.1 °C 49.6 °F /  9.8 °C 30.2 in /  1023.6 hPa West 4 mph /  6.4 km/h 12 mph /  19.3 km/h 92 % 0 in /  0.0 mm
15:22 52 °F /  11.1 °C 49.6 °F /  9.8 °C 30.2 in /  1023.9 hPa West 5 mph /  8.0 km/h 12 mph /  19.3 km/h 92 % 0 in /  0.0 mm
15:32 52 °F /  11.1 °C 49.6 °F /  9.8 °C 30.2 in /  1023.9 hPa WSW 7 mph /  11.3 km/h 13 mph /  20.9 km/h 92 % 0 in /  0.0 mm
15:37 52.2 °F /  11.2 °C 49.8 °F /  9.9 °C 30.2 in /  1023.9 hPa West 4 mph /  6.4 km/h 10 mph /  16.1 km/h 92 % 0 in /  0.0 mm
15:42 52.2 °F /  11.2 °C 49.8 °F /  9.9 °C 30.2 in /  1023.6 hPa WSW 9 mph /  14.5 km/h 10 mph /  16.1 km/h 92 % 0 in /  0.0 mm
15:47 52 °F /  11.1 °C 49.6 °F /  9.8 °C 30.2 in /  1023.6 hPa WSW 5 mph /  8.0 km/h 10 mph /  16.1 km/h 92 % 0 in /  0.0 mm
15:52 52.2 °F /  11.2 °C 49.8 °F /  9.9 °C 30.2 in /  1023.6 hPa West 6 mph /  9.7 km/h 10 mph /  16.1 km/h 92 % 0 in /  0.0 mm
15:57 52.2 °F /  11.2 °C 49.8 °F /  9.9 °C 30.2 in /  1023.6 hPa WSW 7 mph /  11.3 km/h 9 mph /  14.5 km/h 92 % 0 in /  0.0 mm
16:02 52.2 °F /  11.2 °C 49.8 °F /  9.9 °C 30.2 in /  1023.6 hPa West 8 mph /  12.9 km/h 9 mph /  14.5 km/h 92 % 0 in /  0.0 mm
16:07 52.2 °F /  11.2 °C 49.8 °F /  9.9 °C 30.2 in /  1023.6 hPa West 3 mph /  4.8 km/h 10 mph /  16.1 km/h 92 % 0 in /  0.0 mm
16:12 52.2 °F /  11.2 °C 49.8 °F /  9.9 °C 30.2 in /  1023.6 hPa West 5 mph /  8.0 km/h 10 mph /  16.1 km/h 92 % 0 in /  0.0 mm
16:17 52 °F /  11.1 °C 49.6 °F /  9.8 °C 30.2 in /  1023.6 hPa West 6 mph /  9.7 km/h 10 mph /  16.1 km/h 92 % 0 in /  0.0 mm
16:22 52 °F /  11.1 °C 49.6 °F /  9.8 °C 30.2 in /  1023.6 hPa WSW 6 mph /  9.7 km/h 10 mph /  16.1 km/h 92 % 0 in /  0.0 mm
16:32 52 °F /  11.1 °C 49.6 °F /  9.8 °C 30.2 in /  1023.6 hPa WSW 7 mph /  11.3 km/h 11 mph /  17.7 km/h 92 % 0 in /  0.0 mm
16:37 52 °F /  11.1 °C 49.6 °F /  9.8 °C 30.2 in /  1023.6 hPa West 6 mph /  9.7 km/h 11 mph /  17.7 km/h 92 % 0 in /  0.0 mm
16:42 51.8 °F /  11.0 °C 49.6 °F /  9.8 °C 30.2 in /  1023.2 hPa West 5 mph /  8.0 km/h 11 mph /  17.7 km/h 92 % 0 in /  0.0 mm
16:47 51.8 °F /  11.0 °C 49.6 °F /  9.8 °C 30.2 in /  1023.2 hPa WNW 4 mph /  6.4 km/h 11 mph /  17.7 km/h 92 % 0 in /  0.0 mm
16:52 51.8 °F /  11.0 °C 49.3 °F /  9.6 °C 30.2 in /  1023.2 hPa WNW 4 mph /  6.4 km/h 11 mph /  17.7 km/h 91 % 0 in /  0.0 mm
16:57 51.8 °F /  11.0 °C 49.3 °F /  9.6 °C 30.2 in /  1023.6 hPa WSW 7 mph /  11.3 km/h 11 mph /  17.7 km/h 91 % 0 in /  0.0 mm
17:02 51.8 °F /  11.0 °C 49.3 °F /  9.6 °C 30.2 in /  1023.6 hPa West 6 mph /  9.7 km/h 11 mph /  17.7 km/h 91 % 0 in /  0.0 mm
17:07 51.6 °F /  10.9 °C 49.1 °F /  9.5 °C 30.2 in /  1023.6 hPa WSW 6 mph /  9.7 km/h 11 mph /  17.7 km/h 91 % 0 in /  0.0 mm
17:12 51.6 °F /  10.9 °C 49.1 °F /  9.5 °C 30.2 in /  1023.2 hPa West 2 mph /  3.2 km/h 11 mph /  17.7 km/h 91 % 0 in /  0.0 mm
17:17 51.6 °F /  10.9 °C 49.1 °F /  9.5 °C 30.2 in /  1023.2 hPa West 3 mph /  4.8 km/h 9 mph /  14.5 km/h 91 % 0 in /  0.0 mm
17:22 51.6 °F /  10.9 °C 49.1 °F /  9.5 °C 30.2 in /  1023.2 hPa West 2 mph /  3.2 km/h 9 mph /  14.5 km/h 91 % 0 in /  0.0 mm
17:32 51.6 °F /  10.9 °C 49.1 °F /  9.5 °C 30.2 in /  1023.2 hPa West 3 mph /  4.8 km/h 9 mph /  14.5 km/h 91 % 0 in /  0.0 mm
17:37 51.4 °F /  10.8 °C 48.9 °F /  9.4 °C 30.2 in /  1023.2 hPa WSW 6 mph /  9.7 km/h 9 mph /  14.5 km/h 91 % 0 in /  0.0 mm
17:42 51.4 °F /  10.8 °C 48.9 °F /  9.4 °C 30.2 in /  1023.2 hPa West 5 mph /  8.0 km/h 9 mph /  14.5 km/h 91 % 0 in /  0.0 mm
17:52 51.3 °F /  10.7 °C 49.1 °F /  9.5 °C 30.2 in /  1023.2 hPa WSW 3 mph /  4.8 km/h 9 mph /  14.5 km/h 92 % 0 in /  0.0 mm
17:57 51.3 °F /  10.7 °C 48.7 °F /  9.3 °C 30.2 in /  1023.2 hPa West 3 mph /  4.8 km/h 9 mph /  14.5 km/h 91 % 0 in /  0.0 mm
18:02 51.3 °F /  10.7 °C 48.7 °F /  9.3 °C 30.2 in /  1023.2 hPa West 5 mph /  8.0 km/h 9 mph /  14.5 km/h 91 % 0 in /  0.0 mm
18:07 51.1 °F /  10.6 °C 48.6 °F /  9.2 °C 30.2 in /  1023.2 hPa WSW 7 mph /  11.3 km/h 8 mph /  12.9 km/h 91 % 0 in /  0.0 mm
18:12 51.1 °F /  10.6 °C 48.9 °F /  9.4 °C 30.2 in /  1023.2 hPa WSW 2 mph /  3.2 km/h 8 mph /  12.9 km/h 92 % 0 in /  0.0 mm
18:17 51.1 °F /  10.6 °C 48.9 °F /  9.4 °C 30.2 in /  1023.2 hPa WSW 1 mph /  1.6 km/h 8 mph /  12.9 km/h 92 % 0 in /  0.0 mm
18:22 51.1 °F /  10.6 °C 48.9 °F /  9.4 °C 30.2 in /  1023.2 hPa West 4 mph /  6.4 km/h 8 mph /  12.9 km/h 92 % 0 in /  0.0 mm
18:27 50.9 °F /  10.5 °C 48.7 °F /  9.3 °C 30.2 in /  1023.6 hPa West 3 mph /  4.8 km/h 8 mph /  12.9 km/h 92 % 0 in /  0.0 mm
18:32 50.7 °F /  10.4 °C 48.6 °F /  9.2 °C 30.2 in /  1023.6 hPa West 3 mph /  4.8 km/h 6 mph /  9.7 km/h 92 % 0 in /  0.0 mm
18:37 50.7 °F /  10.4 °C 48.7 °F /  9.3 °C 30.2 in /  1023.6 hPa West 4 mph /  6.4 km/h 6 mph /  9.7 km/h 93 % 0 in /  0.0 mm
18:42 50.5 °F /  10.3 °C 48.6 °F /  9.2 °C 30.2 in /  1023.6 hPa WNW 2 mph /  3.2 km/h 5 mph /  8.0 km/h 93 % 0 in /  0.0 mm
18:47 50.5 °F /  10.3 °C 48.6 °F /  9.2 °C 30.2 in /  1023.6 hPa WNW 3 mph /  4.8 km/h 5 mph /  8.0 km/h 93 % 0 in /  0.0 mm
18:57 50.4 °F /  10.2 °C 48.4 °F /  9.1 °C 30.2 in /  1023.6 hPa West 2 mph /  3.2 km/h 5 mph /  8.0 km/h 93 % 0 in /  0.0 mm
19:02 50.4 °F /  10.2 °C 48.4 °F /  9.1 °C 30.2 in /  1023.6 hPa West 2 mph /  3.2 km/h 5 mph /  8.0 km/h 93 % 0 in /  0.0 mm
19:07 50.4 °F /  10.2 °C 48.4 °F /  9.1 °C 30.2 in /  1023.6 hPa West 2 mph /  3.2 km/h 5 mph /  8.0 km/h 93 % 0 in /  0.0 mm
19:12 50.4 °F /  10.2 °C 48.4 °F /  9.1 °C 30.2 in /  1023.6 hPa WSW 4 mph /  6.4 km/h 5 mph /  8.0 km/h 93 % 0 in /  0.0 mm
19:17 50.2 °F /  10.1 °C 48.6 °F /  9.2 °C 30.2 in /  1023.6 hPa WSW 3 mph /  4.8 km/h 5 mph /  8.0 km/h 94 % 0 in /  0.0 mm
19:22 50.2 °F /  10.1 °C 48.6 °F /  9.2 °C 30.2 in /  1023.6 hPa West 3 mph /  4.8 km/h 5 mph /  8.0 km/h 94 % 0 in /  0.0 mm
19:27 50.2 °F /  10.1 °C 48.6 °F /  9.2 °C 30.2 in /  1023.6 hPa SW 2 mph /  3.2 km/h 7 mph /  11.3 km/h 94 % 0 in /  0.0 mm
19:32 50 °F /  10.0 °C 48.4 °F /  9.1 °C 30.2 in /  1023.6 hPa West 3 mph /  4.8 km/h 7 mph /  11.3 km/h 94 % 0 in /  0.0 mm
19:37 49.8 °F /  9.9 °C 48.2 °F /  9.0 °C 30.2 in /  1023.6 hPa WSW 4 mph /  6.4 km/h 6 mph /  9.7 km/h 94 % 0 in /  0.0 mm
19:42 49.8 °F /  9.9 °C 48.4 °F /  9.1 °C 30.2 in /  1023.6 hPa WNW 2 mph /  3.2 km/h 6 mph /  9.7 km/h 95 % 0 in /  0.0 mm
19:47 49.8 °F /  9.9 °C 48.4 °F /  9.1 °C 30.2 in /  1023.6 hPa West 3 mph /  4.8 km/h 6 mph /  9.7 km/h 95 % 0 in /  0.0 mm
19:52 49.8 °F /  9.9 °C 48.4 °F /  9.1 °C 30.2 in /  1023.6 hPa West 3 mph /  4.8 km/h 6 mph /  9.7 km/h 95 % 0 in /  0.0 mm
19:57 49.6 °F /  9.8 °C 48.2 °F /  9.0 °C 30.2 in /  1023.2 hPa West 2 mph /  3.2 km/h 6 mph /  9.7 km/h 95 % 0 in /  0.0 mm
20:02 49.6 °F /  9.8 °C 48.2 °F /  9.0 °C 30.2 in /  1023.6 hPa West 3 mph /  4.8 km/h 6 mph /  9.7 km/h 95 % 0 in /  0.0 mm
20:12 49.6 °F /  9.8 °C 48.2 °F /  9.0 °C 30.2 in /  1023.6 hPa WSW 3 mph /  4.8 km/h 7 mph /  11.3 km/h 95 % 0 in /  0.0 mm
20:17 49.6 °F /  9.8 °C 48.2 °F /  9.0 °C 30.2 in /  1023.6 hPa WSW 4 mph /  6.4 km/h 6 mph /  9.7 km/h 95 % 0 in /  0.0 mm
20:22 49.5 °F /  9.7 °C 48 °F /  8.9 °C 30.2 in /  1023.6 hPa West 2 mph /  3.2 km/h 6 mph /  9.7 km/h 95 % 0 in /  0.0 mm
20:27 49.5 °F /  9.7 °C 48 °F /  8.9 °C 30.2 in /  1023.6 hPa West 3 mph /  4.8 km/h 4 mph /  6.4 km/h 95 % 0 in /  0.0 mm
20:32 49.6 °F /  9.8 °C 48.2 °F /  9.0 °C 30.2 in /  1023.6 hPa SW 3 mph /  4.8 km/h 4 mph /  6.4 km/h 95 % 0 in /  0.0 mm
20:37 49.6 °F /  9.8 °C 48 °F /  8.9 °C 30.2 in /  1023.6 hPa SSW 1 mph /  1.6 km/h 8 mph /  12.9 km/h 94 % 0 in /  0.0 mm
20:42 49.6 °F /  9.8 °C 48 °F /  8.9 °C 30.2 in /  1023.6 hPa WSW 4 mph /  6.4 km/h 8 mph /  12.9 km/h 94 % 0 in /  0.0 mm
20:47 49.6 °F /  9.8 °C 48 °F /  8.9 °C 30.2 in /  1023.6 hPa SW 2 mph /  3.2 km/h 8 mph /  12.9 km/h 94 % 0 in /  0.0 mm
20:52 49.6 °F /  9.8 °C 48 °F /  8.9 °C 30.2 in /  1023.6 hPa SW 2 mph /  3.2 km/h 8 mph /  12.9 km/h 94 % 0 in /  0.0 mm
20:57 49.6 °F /  9.8 °C 48 °F /  8.9 °C 30.2 in /  1023.6 hPa WSW 5 mph /  8.0 km/h 8 mph /  12.9 km/h 94 % 0 in /  0.0 mm
21:02 49.5 °F /  9.7 °C 47.8 °F /  8.8 °C 30.2 in /  1023.6 hPa WSW 3 mph /  4.8 km/h 8 mph /  12.9 km/h 94 % 0 in /  0.0 mm
21:07 49.5 °F /  9.7 °C 47.8 °F /  8.8 °C 30.2 in /  1023.6 hPa WSW 4 mph /  6.4 km/h 8 mph /  12.9 km/h 94 % 0 in /  0.0 mm
21:12 49.5 °F /  9.7 °C 47.8 °F /  8.8 °C 30.2 in /  1023.6 hPa WSW 5 mph /  8.0 km/h 8 mph /  12.9 km/h 94 % 0 in /  0.0 mm
21:17 49.5 °F /  9.7 °C 47.8 °F /  8.8 °C 30.2 in /  1023.6 hPa SW 3 mph /  4.8 km/h 9 mph /  14.5 km/h 94 % 0 in /  0.0 mm
21:22 49.5 °F /  9.7 °C 47.8 °F /  8.8 °C 30.2 in /  1023.6 hPa SSW 3 mph /  4.8 km/h 9 mph /  14.5 km/h 94 % 0 in /  0.0 mm
21:27 49.3 °F /  9.6 °C 47.8 °F /  8.8 °C 30.2 in /  1023.2 hPa WSW 6 mph /  9.7 km/h 9 mph /  14.5 km/h 95 % 0 in /  0.0 mm
21:32 49.3 °F /  9.6 °C 47.8 °F /  8.8 °C 30.2 in /  1023.2 hPa WSW 4 mph /  6.4 km/h 9 mph /  14.5 km/h 95 % 0 in /  0.0 mm
21:37 49.3 °F /  9.6 °C 47.7 °F /  8.7 °C 30.2 in /  1023.2 hPa WSW 5 mph /  8.0 km/h 9 mph /  14.5 km/h 94 % 0 in /  0.0 mm
21:42 49.3 °F /  9.6 °C 47.7 °F /  8.7 °C 30.2 in /  1023.2 hPa SW 3 mph /  4.8 km/h 9 mph /  14.5 km/h 94 % 0 in /  0.0 mm
21:47 49.3 °F /  9.6 °C 47.7 °F /  8.7 °C 30.2 in /  1023.2 hPa WSW 4 mph /  6.4 km/h 8 mph /  12.9 km/h 94 % 0 in /  0.0 mm
21:52 49.3 °F /  9.6 °C 47.7 °F /  8.7 °C 30.2 in /  1023.2 hPa WSW 2 mph /  3.2 km/h 8 mph /  12.9 km/h 94 % 0 in /  0.0 mm
21:57 49.3 °F /  9.6 °C 47.7 °F /  8.7 °C 30.2 in /  1023.2 hPa West 5 mph /  8.0 km/h 6 mph /  9.7 km/h 94 % 0 in /  0.0 mm
22:02 49.3 °F /  9.6 °C 47.7 °F /  8.7 °C 30.2 in /  1023.2 hPa WSW 6 mph /  9.7 km/h 6 mph /  9.7 km/h 94 % 0 in /  0.0 mm
22:07 49.3 °F /  9.6 °C 47.7 °F /  8.7 °C 30.2 in /  1023.2 hPa West 5 mph /  8.0 km/h 7 mph /  11.3 km/h 94 % 0 in /  0.0 mm
22:12 49.3 °F /  9.6 °C 47.7 °F /  8.7 °C 30.2 in /  1023.2 hPa WSW 6 mph /  9.7 km/h 7 mph /  11.3 km/h 94 % 0 in /  0.0 mm
22:17 49.3 °F /  9.6 °C 47.7 °F /  8.7 °C 30.2 in /  1023.2 hPa WSW 2 mph /  3.2 km/h 9 mph /  14.5 km/h 94 % 0 in /  0.0 mm
22:22 49.3 °F /  9.6 °C 47.7 °F /  8.7 °C 30.2 in /  1023.2 hPa West 3 mph /  4.8 km/h 9 mph /  14.5 km/h 94 % 0 in /  0.0 mm
22:27 49.3 °F /  9.6 °C 47.7 °F /  8.7 °C 30.2 in /  1023.2 hPa West 2 mph /  3.2 km/h 10 mph /  16.1 km/h 94 % 0 in /  0.0 mm
22:32 49.3 °F /  9.6 °C 47.7 °F /  8.7 °C 30.2 in /  1023.2 hPa West 3 mph /  4.8 km/h 10 mph /  16.1 km/h 94 % 0 in /  0.0 mm
22:37 49.3 °F /  9.6 °C 47.7 °F /  8.7 °C 30.2 in /  1023.2 hPa SSW 4 mph /  6.4 km/h 11 mph /  17.7 km/h 94 % 0 in /  0.0 mm
22:42 49.3 °F /  9.6 °C 47.7 °F /  8.7 °C 30.2 in /  1023.2 hPa SW 3 mph /  4.8 km/h 11 mph /  17.7 km/h 94 % 0 in /  0.0 mm
22:47 49.1 °F /  9.5 °C 47.5 °F /  8.6 °C 30.2 in /  1023.2 hPa West 6 mph /  9.7 km/h 9 mph /  14.5 km/h 94 % 0 in /  0.0 mm
22:52 49.1 °F /  9.5 °C 47.5 °F /  8.6 °C 30.2 in /  1023.2 hPa WSW 7 mph /  11.3 km/h 9 mph /  14.5 km/h 94 % 0 in /  0.0 mm
22:57 49.1 °F /  9.5 °C 47.5 °F /  8.6 °C 30.2 in /  1023.2 hPa SW 6 mph /  9.7 km/h 13 mph /  20.9 km/h 94 % 0 in /  0.0 mm
23:02 48.9 °F /  9.4 °C 47.3 °F /  8.5 °C 30.2 in /  1023.2 hPa West 5 mph /  8.0 km/h 13 mph /  20.9 km/h 94 % 0 in /  0.0 mm
23:07 48.9 °F /  9.4 °C 47.3 °F /  8.5 °C 30.2 in /  1023.2 hPa WSW 3 mph /  4.8 km/h 13 mph /  20.9 km/h 94 % 0 in /  0.0 mm
23:12 48.9 °F /  9.4 °C 47.3 °F /  8.5 °C 30.2 in /  1023.2 hPa West 7 mph /  11.3 km/h 13 mph /  20.9 km/h 94 % 0 in /  0.0 mm
23:17 48.9 °F /  9.4 °C 47.3 °F /  8.5 °C 30.2 in /  1023.2 hPa WSW 4 mph /  6.4 km/h 10 mph /  16.1 km/h 94 % 0 in /  0.0 mm
23:22 48.9 °F /  9.4 °C 47.3 °F /  8.5 °C 30.2 in /  1023.2 hPa WSW 4 mph /  6.4 km/h 10 mph /  16.1 km/h 94 % 0 in /  0.0 mm
23:27 48.9 °F /  9.4 °C 47.3 °F /  8.5 °C 30.2 in /  1023.2 hPa SW 7 mph /  11.3 km/h 10 mph /  16.1 km/h 94 % 0 in /  0.0 mm
23:32 48.9 °F /  9.4 °C 47.3 °F /  8.5 °C 30.2 in /  1023.2 hPa West 6 mph /  9.7 km/h 10 mph /  16.1 km/h 94 % 0 in /  0.0 mm
23:37 48.9 °F /  9.4 °C 47.3 °F /  8.5 °C 30.2 in /  1023.2 hPa WSW 7 mph /  11.3 km/h 10 mph /  16.1 km/h 94 % 0 in /  0.0 mm
23:42 48.9 °F /  9.4 °C 47.3 °F /  8.5 °C 30.2 in /  1023.2 hPa Calm   10 mph /  16.1 km/h 94 % 0 in /  0.0 mm
23:47 48.9 °F /  9.4 °C 47.3 °F /  8.5 °C 30.2 in /  1023.2 hPa WSW 5 mph /  8.0 km/h 9 mph /  14.5 km/h 94 % 0 in /  0.0 mm
23:52 48.9 °F /  9.4 °C 47.3 °F /  8.5 °C 30.2 in /  1023.2 hPa SW 6 mph /  9.7 km/h 9 mph /  14.5 km/h 94 % 0 in /  0.0 mm
23:57 48.9 °F /  9.4 °C 47.3 °F /  8.5 °C 30.2 in /  1023.2 hPa WSW 3 mph /  4.8 km/h 10 mph /  16.1 km/h 94 % 0 in /  0.0 mm
Meteo18
Compliments of Weather Underground - 4 mb

Script developed by  Jim McMurry - jmcmurry@mwt.net Adapted for the template by  Wim van der Kuil - Leuven-Template.eu

You find our weather info also at:

European Weather Network

Weather Underground

Equipment we use:

Weather-station
Davis Vue

Weather-program
Meteohub

Weather-server
Raspberry PI 2 B+

Provider
1 and 1

Davis Vue

Meteohub

Raspberry PI 2 B+

1 and 1